Aviation Digital Data Service (ADDS)

Output produced by METARs form (0212 UTC 16 January 2019)
found at http://www.aviationweather.gov/metar/data/
 
TAF MSLP 152125Z 1600/1624 03008KT 9999 FEW070 TX35/1618Z TN24/1610Z 
     FM160400 CAVOK 
     TEMPO 1614/1621 02015G28KT 
     FM162100 18008KT 9999 FEW060
       
TAF MSSS 152125Z 1600/1624 35010KT CAVOK TX30/1620Z TN18/1612Z 
     TEMPO 1613/1624 35010G20KT 9999 FEW037